Stations météo

réclame
Mon MeteoGroup
Reggio Calabria, Italie (16422): Température de l'air & dewpoint: 17.04.2018 04:00:00 - 23.04.2018 04:00:00 (CEST)Reggio Calabria, Italie (16422): Vitesse du vent: 17.04.2018 04:00:00 - 23.04.2018 04:00:00 (CEST)Reggio Calabria, Italie (16422): Direction du vent: 17.04.2018 04:00:00 - 23.04.2018 04:00:00 (CEST)Reggio Calabria, Italie (16422): visibility: 17.04.2018 04:00:00 - 23.04.2018 04:00:00 (CEST)
Date & Time tt [°C] td [°C] ff [km/h] ff [knt] dd vv [km]
23.04.2018 04:00:00 - - - - - -
23.04.2018 03:00:00 - - - - - -
23.04.2018 02:00:00 - - - - - -
23.04.2018 01:00:00 - - - - - -
23.04.2018 00:00:00 18,0 12,0 18 10 N 10
22.04.2018 23:00:00 17,0 11,0 11 6 NNE 10
22.04.2018 22:00:00 17,0 13,0 11 6 NNE 10
22.04.2018 21:00:00 18,0 14,0 15 8 NNE 10
22.04.2018 20:00:00 17,0 15,0 8 4 NNE 10
22.04.2018 19:00:00 18,0 15,0 8 4 WNW 10
22.04.2018 18:00:00 18,0 16,0 5 3 S 10
22.04.2018 17:00:00 19,0 16,0 11 6 S 10
22.04.2018 16:00:00 17,0 16,0 11 6 SSW 10
22.04.2018 15:00:00 17,0 15,0 8 4 SW 10
22.04.2018 14:00:00 19,0 16,0 11 6 SSW 10
22.04.2018 13:00:00 18,0 16,0 4 2 - 10
22.04.2018 12:00:00 17,0 15,0 8 4 SW 10
22.04.2018 11:00:00 19,0 16,0 11 6 SW 10
22.04.2018 10:00:00 19,0 15,0 9 5 SW 10
22.04.2018 09:00:00 18,0 13,0 4 2 - 10
22.04.2018 08:00:00 16,0 12,0 4 2 - 10
22.04.2018 07:00:00 14,0 10,0 5 3 ENE 10
22.04.2018 06:00:00 14,0 9,0 5 3 ENE 10
22.04.2018 05:00:00 - - - - - -
22.04.2018 04:00:00 - - - - - -
22.04.2018 03:00:00 - - - - - -
22.04.2018 02:00:00 - - - - - -
22.04.2018 01:00:00 - - - - - -
22.04.2018 00:00:00 15,0 12,0 5 3 NE 10
21.04.2018 23:00:00 16,0 12,0 4 2 ENE 10
21.04.2018 22:00:00 17,0 12,0 2 1 - 10
21.04.2018 21:00:00 16,0 12,0 5 3 S 10
21.04.2018 20:00:00 17,0 12,0 5 3 W 10
21.04.2018 19:00:00 18,0 12,0 0 0 N 10
21.04.2018 18:00:00 20,0 14,0 5 3 SSW 10
21.04.2018 17:00:00 20,0 14,0 9 5 SW 10
21.04.2018 16:00:00 21,0 15,0 11 6 SW 10
21.04.2018 15:00:00 21,0 15,0 18 10 WSW 10
21.04.2018 14:00:00 25,0 12,0 21 11 NNW 10
21.04.2018 13:00:00 25,0 13,0 22 12 N 10
21.04.2018 12:00:00 24,0 13,0 22 12 N 10
21.04.2018 11:00:00 24,0 12,0 21 11 N 10
21.04.2018 10:00:00 23,0 12,0 21 11 N 10
21.04.2018 09:00:00 21,0 11,0 21 11 N 10
21.04.2018 08:00:00 20,0 12,0 16 9 N 10
21.04.2018 07:00:00 17,0 11,0 13 7 NE 10
21.04.2018 06:00:00 17,0 10,0 15 8 NNE 10
21.04.2018 05:00:00 - - - - - -
21.04.2018 04:00:00 - - - - - -
21.04.2018 03:00:00 - - - - - -
21.04.2018 02:00:00 - - - - - -
21.04.2018 01:00:00 - - - - - -
21.04.2018 00:00:00 18,0 12,0 13 7 NNE 10
20.04.2018 23:00:00 18,0 12,0 18 10 N 10
20.04.2018 22:00:00 19,0 12,0 22 12 N 10
20.04.2018 21:00:00 19,0 12,0 22 12 N 10
20.04.2018 20:00:00 19,0 12,0 24 13 N 10
20.04.2018 19:00:00 19,0 13,0 28 15 N 10
20.04.2018 18:00:00 20,0 13,0 29 16 N 10
20.04.2018 17:00:00 21,0 13,0 31 17 N 10
20.04.2018 16:00:00 21,0 14,0 31 17 N 10
20.04.2018 15:00:00 23,0 13,0 29 16 N 10
20.04.2018 14:00:00 24,0 13,0 26 14 N 10
20.04.2018 13:00:00 24,0 15,0 21 11 N 10
20.04.2018 12:00:00 22,0 14,0 24 13 N 10
20.04.2018 11:00:00 21,0 15,0 21 11 N 10
20.04.2018 10:00:00 19,0 14,0 24 13 N 10
20.04.2018 09:00:00 18,0 15,0 22 12 N 10
20.04.2018 08:00:00 17,0 14,0 18 10 N 10
20.04.2018 07:00:00 15,0 12,0 13 7 N 10
20.04.2018 06:00:00 13,0 12,0 11 6 N 10
20.04.2018 05:00:00 - - - - - -
20.04.2018 04:00:00 - - - - - -
20.04.2018 03:00:00 - - - - - -
20.04.2018 02:00:00 - - - - - -
20.04.2018 01:00:00 - - - - - -
20.04.2018 00:00:00 14,0 13,0 8 4 NE 10
19.04.2018 23:00:00 15,0 13,0 8 4 NE 10
19.04.2018 22:00:00 15,0 14,0 5 3 NE 10
19.04.2018 21:00:00 16,0 14,0 4 2 N 10
19.04.2018 20:00:00 16,0 14,0 8 4 NNW 10
19.04.2018 19:00:00 18,0 14,0 5 3 W 10
19.04.2018 18:00:00 19,0 14,0 8 4 WSW 10
19.04.2018 17:00:00 20,0 14,0 9 5 SW 10
19.04.2018 16:00:00 20,0 14,0 8 4 WSW 10
19.04.2018 15:00:00 20,0 15,0 9 5 WSW 10
19.04.2018 14:00:00 20,0 14,0 11 6 SW 10
19.04.2018 13:00:00 21,0 15,0 9 5 - 10
19.04.2018 12:00:00 20,0 15,0 16 9 N 10
19.04.2018 11:00:00 19,0 15,0 21 11 N 10
19.04.2018 10:00:00 18,0 15,0 22 12 N 10
19.04.2018 09:00:00 18,0 15,0 16 9 N 10
19.04.2018 08:00:00 16,0 14,0 11 6 NNE 10
19.04.2018 07:00:00 14,0 13,0 9 5 NNE 10
19.04.2018 06:00:00 14,0 13,0 11 6 NNE 10
19.04.2018 05:00:00 - - - - - -
19.04.2018 04:00:00 - - - - - -
19.04.2018 03:00:00 - - - - - -
19.04.2018 02:00:00 - - - - - -
19.04.2018 01:00:00 - - - - - -
19.04.2018 00:00:00 16,0 13,0 21 11 N 10
18.04.2018 23:00:00 16,0 13,0 21 11 N 10
18.04.2018 22:00:00 15,0 14,0 9 5 N 10
18.04.2018 21:00:00 15,0 14,0 5 3 N 10
18.04.2018 20:00:00 16,0 14,0 2 1 - 10
18.04.2018 19:00:00 17,0 15,0 4 2 W 10
18.04.2018 18:00:00 17,0 15,0 4 2 - 8
18.04.2018 17:00:00 17,0 15,0 9 5 SW 8
18.04.2018 16:00:00 17,0 15,0 13 7 SSW 8
18.04.2018 15:00:00 18,0 17,0 13 7 SW 8
18.04.2018 14:00:00 18,0 15,0 11 6 SSW 6
18.04.2018 13:00:00 19,0 15,0 13 7 S 10
18.04.2018 12:00:00 19,0 13,0 9 5 S 10
18.04.2018 11:00:00 20,0 12,0 9 5 S 10
18.04.2018 10:00:00 20,0 10,0 5 3 S 10
18.04.2018 09:00:00 18,0 12,0 4 2 - 10
18.04.2018 08:00:00 15,0 12,0 4 2 NE 10
18.04.2018 07:00:00 13,0 10,0 5 3 N 10
18.04.2018 06:00:00 12,0 7,0 4 2 ENE 10
18.04.2018 05:00:00 - - - - - -
18.04.2018 04:00:00 - - - - - -
18.04.2018 03:00:00 - - - - - -
18.04.2018 02:00:00 - - - - - -
18.04.2018 01:00:00 - - - - - -
18.04.2018 00:00:00 15,0 13,0 16 9 N 10
17.04.2018 23:00:00 15,0 14,0 22 12 N 10
17.04.2018 22:00:00 - - - - - -
17.04.2018 21:00:00 16,0 14,0 24 13 N 10
17.04.2018 20:00:00 16,0 14,0 26 14 N 10
17.04.2018 19:00:00 17,0 13,0 24 13 N 10
17.04.2018 18:00:00 19,0 12,0 22 12 N 10
17.04.2018 17:00:00 21,0 10,0 26 14 N 10
17.04.2018 16:00:00 22,0 9,0 24 13 N 10
17.04.2018 15:00:00 22,0 9,0 24 13 N 10
17.04.2018 14:00:00 22,0 9,0 26 14 N 10
17.04.2018 13:00:00 22,0 9,0 28 15 N 10
17.04.2018 12:00:00 21,0 11,0 26 14 N 10
17.04.2018 11:00:00 19,0 12,0 28 15 N 10
17.04.2018 10:00:00 19,0 13,0 22 12 NNW 10
17.04.2018 09:00:00 16,0 13,0 22 12 N 10
17.04.2018 08:00:00 16,0 13,0 24 13 N 10
17.04.2018 07:00:00 15,0 12,0 21 11 N 10
17.04.2018 06:00:00 15,0 11,0 24 13 N 10
17.04.2018 05:00:00 - - - - - -
17.04.2018 04:00:00 - - - - - -

tt = Température de l'air
td = dewpoint
ff = Vitesse du vent
dd = Direction du vent
vv = visibility

stations d'obs. à proximité